sensor_id;sensor_type;location;lat;lon;timestamp;temperature;humidity
18882;DHT22;9573;50.948;11.600;2023-09-19T00:00:37;16.40;99.90
18882;DHT22;9573;50.948;11.600;2023-09-19T00:03:06;16.50;99.90
18882;DHT22;9573;50.948;11.600;2023-09-19T00:05:36;16.40;99.90
18882;DHT22;9573;50.948;11.600;2023-09-19T00:08:05;16.40;99.90
18882;DHT22;9573;50.948;11.600;2023-09-19T00:10:33;16.30;99.90
18882;DHT22;9573;50.948;11.600;2023-09-19T00:13:01;16.30;99.90
18882;DHT22;9573;50.948;11.600;2023-09-19T00:15:35;16.20;99.90
18882;DHT22;9573;50.948;11.600;2023-09-19T00:18:04;16.20;99.90
18882;DHT22;9573;50.948;11.600;2023-09-19T00:20:32;16.10;99.90
18882;DHT22;9573;50.948;11.600;2023-09-19T00:23:02;16.10;99.90
18882;DHT22;9573;50.948;11.600;2023-09-19T00:25:34;16.10;99.90
18882;DHT22;9573;50.948;11.600;2023-09-19T00:28:03;16.00;99.90
18882;DHT22;9573;50.948;11.600;2023-09-19T00:30:31;16.00;99.90
18882;DHT22;9573;50.948;11.600;2023-09-19T00:32:59;15.90;99.90
18882;DHT22;9573;50.948;11.600;2023-09-19T00:35:28;15.90;99.90
18882;DHT22;9573;50.948;11.600;2023-09-19T00:37:56;15.80;99.90
18882;DHT22;9573;50.948;11.600;2023-09-19T00:40:25;15.80;99.90
18882;DHT22;9573;50.948;11.600;2023-09-19T00:42:52;15.80;99.90
18882;DHT22;9573;50.948;11.600;2023-09-19T00:45:25;15.70;99.90
18882;DHT22;9573;50.948;11.600;2023-09-19T00:47:53;15.70;99.90
18882;DHT22;9573;50.948;11.600;2023-09-19T00:50:24;15.60;99.90
18882;DHT22;9573;50.948;11.600;2023-09-19T00:52:54;15.60;99.90
18882;DHT22;9573;50.948;11.600;2023-09-19T00:55:25;15.50;99.90
18882;DHT22;9573;50.948;11.600;2023-09-19T00:57:56;15.50;99.90
18882;DHT22;9573;50.948;11.600;2023-09-19T01:00:24;15.40;99.90
18882;DHT22;9573;50.948;11.600;2023-09-19T01:02:51;15.50;99.90
18882;DHT22;9573;50.948;11.600;2023-09-19T01:05:19;15.30;99.90
18882;DHT22;9573;50.948;11.600;2023-09-19T01:07:46;15.30;99.90
18882;DHT22;9573;50.948;11.600;2023-09-19T01:10:16;15.30;99.90
18882;DHT22;9573;50.948;11.600;2023-09-19T01:12:54;15.30;99.90
18882;DHT22;9573;50.948;11.600;2023-09-19T01:15:38;15.30;99.90
18882;DHT22;9573;50.948;11.600;2023-09-19T01:18:16;15.20;99.90
18882;DHT22;9573;50.948;11.600;2023-09-19T01:20:56;15.20;99.90
18882;DHT22;9573;50.948;11.600;2023-09-19T01:23:39;15.20;99.90
18882;DHT22;9573;50.948;11.600;2023-09-19T01:26:22;15.20;99.90
18882;DHT22;9573;50.948;11.600;2023-09-19T01:29:16;15.30;99.90
18882;DHT22;9573;50.948;11.600;2023-09-19T01:32:02;15.30;99.90
18882;DHT22;9573;50.948;11.600;2023-09-19T01:34:43;15.30;99.90
18882;DHT22;9573;50.948;11.600;2023-09-19T01:37:12;15.30;99.90
18882;DHT22;9573;50.948;11.600;2023-09-19T01:39:44;15.30;99.90
18882;DHT22;9573;50.948;11.600;2023-09-19T01:42:21;15.30;99.90
18882;DHT22;9573;50.948;11.600;2023-09-19T01:44:57;15.30;99.90
18882;DHT22;9573;50.948;11.600;2023-09-19T01:47:33;15.30;99.90
18882;DHT22;9573;50.948;11.600;2023-09-19T01:50:08;15.30;99.90
18882;DHT22;9573;50.948;11.600;2023-09-19T01:52:54;15.40;99.90
18882;DHT22;9573;50.948;11.600;2023-09-19T01:55:29;15.50;99.90
18882;DHT22;9573;50.948;11.600;2023-09-19T01:58:04;15.50;99.90
18882;DHT22;9573;50.948;11.600;2023-09-19T02:00:34;15.50;99.90
18882;DHT22;9573;50.948;11.600;2023-09-19T02:03:06;15.60;99.90
18882;DHT22;9573;50.948;11.600;2023-09-19T02:05:34;15.60;99.90
18882;DHT22;9573;50.948;11.600;2023-09-19T02:08:01;15.60;99.90
18882;DHT22;9573;50.948;11.600;2023-09-19T02:10:28;15.60;99.90
18882;DHT22;9573;50.948;11.600;2023-09-19T02:12:55;15.60;99.90
18882;DHT22;9573;50.948;11.600;2023-09-19T02:15:22;15.60;99.90
18882;DHT22;9573;50.948;11.600;2023-09-19T02:17:49;15.70;99.90
18882;DHT22;9573;50.948;11.600;2023-09-19T02:20:18;15.70;99.90
18882;DHT22;9573;50.948;11.600;2023-09-19T02:22:46;15.70;99.90
18882;DHT22;9573;50.948;11.600;2023-09-19T02:25:15;15.70;99.90
18882;DHT22;9573;50.948;11.600;2023-09-19T02:27:44;15.80;99.90
18882;DHT22;9573;50.948;11.600;2023-09-19T02:30:12;15.80;99.90
18882;DHT22;9573;50.948;11.600;2023-09-19T02:32:41;15.80;99.90
18882;DHT22;9573;50.948;11.600;2023-09-19T02:35:08;15.80;99.90
18882;DHT22;9573;50.948;11.600;2023-09-19T02:37:38;15.70;99.90
18882;DHT22;9573;50.948;11.600;2023-09-19T02:40:06;15.70;99.90
18882;DHT22;9573;50.948;11.600;2023-09-19T02:42:44;15.70;99.90
18882;DHT22;9573;50.948;11.600;2023-09-19T02:45:15;15.70;99.90
18882;DHT22;9573;50.948;11.600;2023-09-19T02:47:44;15.80;99.90
18882;DHT22;9573;50.948;11.600;2023-09-19T02:50:11;15.70;99.90
18882;DHT22;9573;50.948;11.600;2023-09-19T02:52:43;15.70;99.90
18882;DHT22;9573;50.948;11.600;2023-09-19T02:55:13;15.70;99.90
18882;DHT22;9573;50.948;11.600;2023-09-19T02:57:46;15.80;99.90
18882;DHT22;9573;50.948;11.600;2023-09-19T03:00:14;15.80;99.90
18882;DHT22;9573;50.948;11.600;2023-09-19T03:02:41;15.80;99.90
18882;DHT22;9573;50.948;11.600;2023-09-19T03:05:10;15.80;99.90
18882;DHT22;9573;50.948;11.600;2023-09-19T03:07:38;15.70;99.90
18882;DHT22;9573;50.948;11.600;2023-09-19T03:10:08;15.70;99.90
18882;DHT22;9573;50.948;11.600;2023-09-19T03:12:35;15.70;99.90
18882;DHT22;9573;50.948;11.600;2023-09-19T03:15:04;15.80;99.90
18882;DHT22;9573;50.948;11.600;2023-09-19T03:17:34;15.90;99.90
18882;DHT22;9573;50.948;11.600;2023-09-19T03:20:01;15.90;99.90
18882;DHT22;9573;50.948;11.600;2023-09-19T03:22:29;15.90;99.90
18882;DHT22;9573;50.948;11.600;2023-09-19T03:24:58;16.00;99.90
18882;DHT22;9573;50.948;11.600;2023-09-19T03:27:27;16.10;99.90
18882;DHT22;9573;50.948;11.600;2023-09-19T03:29:55;16.20;99.90
18882;DHT22;9573;50.948;11.600;2023-09-19T03:32:22;16.20;99.90
18882;DHT22;9573;50.948;11.600;2023-09-19T03:34:49;16.30;99.90
18882;DHT22;9573;50.948;11.600;2023-09-19T03:37:16;16.30;99.90
18882;DHT22;9573;50.948;11.600;2023-09-19T03:39:44;16.40;99.90
18882;DHT22;9573;50.948;11.600;2023-09-19T03:42:12;16.40;99.90
18882;DHT22;9573;50.948;11.600;2023-09-19T03:44:40;16.40;99.90
18882;DHT22;9573;50.948;11.600;2023-09-19T03:47:07;16.40;99.90
18882;DHT22;9573;50.948;11.600;2023-09-19T03:49:34;16.30;99.90
18882;DHT22;9573;50.948;11.600;2023-09-19T03:52:02;16.20;99.90
18882;DHT22;9573;50.948;11.600;2023-09-19T03:54:30;16.00;99.90
18882;DHT22;9573;50.948;11.600;2023-09-19T03:56:57;16.30;99.90
18882;DHT22;9573;50.948;11.600;2023-09-19T03:59:24;15.80;99.90
18882;DHT22;9573;50.948;11.600;2023-09-19T04:01:54;15.60;99.90
18882;DHT22;9573;50.948;11.600;2023-09-19T04:04:22;15.60;99.90
18882;DHT22;9573;50.948;11.600;2023-09-19T04:06:50;15.50;99.90
18882;DHT22;9573;50.948;11.600;2023-09-19T04:09:17;15.40;99.90
18882;DHT22;9573;50.948;11.600;2023-09-19T04:11:45;15.30;99.90
18882;DHT22;9573;50.948;11.600;2023-09-19T04:14:12;15.20;99.90
18882;DHT22;9573;50.948;11.600;2023-09-19T04:16:39;15.20;99.90
18882;DHT22;9573;50.948;11.600;2023-09-19T04:19:07;15.20;99.90
18882;DHT22;9573;50.948;11.600;2023-09-19T04:21:35;15.10;99.90
18882;DHT22;9573;50.948;11.600;2023-09-19T04:24:02;15.10;99.90
18882;DHT22;9573;50.948;11.600;2023-09-19T04:26:31;15.00;99.90
18882;DHT22;9573;50.948;11.600;2023-09-19T04:28:58;15.00;99.90
18882;DHT22;9573;50.948;11.600;2023-09-19T04:31:26;14.90;99.90
18882;DHT22;9573;50.948;11.600;2023-09-19T04:33:53;14.80;99.90
18882;DHT22;9573;50.948;11.600;2023-09-19T04:36:22;14.80;99.90
18882;DHT22;9573;50.948;11.600;2023-09-19T04:38:49;14.70;99.90
18882;DHT22;9573;50.948;11.600;2023-09-19T04:41:16;14.70;99.90
18882;DHT22;9573;50.948;11.600;2023-09-19T04:43:43;14.60;99.90
18882;DHT22;9573;50.948;11.600;2023-09-19T04:46:10;14.60;99.90
18882;DHT22;9573;50.948;11.600;2023-09-19T04:48:39;14.60;99.90
18882;DHT22;9573;50.948;11.600;2023-09-19T04:51:07;14.70;99.90
18882;DHT22;9573;50.948;11.600;2023-09-19T04:53:35;14.80;99.90
18882;DHT22;9573;50.948;11.600;2023-09-19T04:56:03;14.90;99.90
18882;DHT22;9573;50.948;11.600;2023-09-19T04:58:32;15.00;99.90
18882;DHT22;9573;50.948;11.600;2023-09-19T05:00:59;15.10;99.90
18882;DHT22;9573;50.948;11.600;2023-09-19T05:03:28;15.10;99.90
18882;DHT22;9573;50.948;11.600;2023-09-19T05:05:55;15.20;99.90
18882;DHT22;9573;50.948;11.600;2023-09-19T05:08:22;15.20;99.90
18882;DHT22;9573;50.948;11.600;2023-09-19T05:10:51;15.20;99.90
18882;DHT22;9573;50.948;11.600;2023-09-19T05:13:18;15.20;99.90
18882;DHT22;9573;50.948;11.600;2023-09-19T05:15:50;15.20;99.90
18882;DHT22;9573;50.948;11.600;2023-09-19T05:18:17;15.10;99.90
18882;DHT22;9573;50.948;11.600;2023-09-19T05:20:44;15.00;99.90
18882;DHT22;9573;50.948;11.600;2023-09-19T05:23:11;15.00;99.90
18882;DHT22;9573;50.948;11.600;2023-09-19T05:25:39;15.00;99.90
18882;DHT22;9573;50.948;11.600;2023-09-19T05:28:10;15.00;99.90
18882;DHT22;9573;50.948;11.600;2023-09-19T05:30:40;15.00;99.90
18882;DHT22;9573;50.948;11.600;2023-09-19T05:33:09;15.00;99.90
18882;DHT22;9573;50.948;11.600;2023-09-19T05:35:36;15.10;99.90
18882;DHT22;9573;50.948;11.600;2023-09-19T05:38:05;15.20;99.90
18882;DHT22;9573;50.948;11.600;2023-09-19T05:40:34;15.50;99.90
18882;DHT22;9573;50.948;11.600;2023-09-19T05:43:02;16.60;99.90
18882;DHT22;9573;50.948;11.600;2023-09-19T05:45:32;17.50;99.90
18882;DHT22;9573;50.948;11.600;2023-09-19T05:48:08;17.60;99.90
18882;DHT22;9573;50.948;11.600;2023-09-19T05:50:37;17.80;99.90
18882;DHT22;9573;50.948;11.600;2023-09-19T05:53:04;20.20;99.90
18882;DHT22;9573;50.948;11.600;2023-09-19T05:55:31;23.20;99.90
18882;DHT22;9573;50.948;11.600;2023-09-19T05:57:59;25.60;99.90
18882;DHT22;9573;50.948;11.600;2023-09-19T06:00:27;27.80;99.90
18882;DHT22;9573;50.948;11.600;2023-09-19T06:02:57;29.30;99.90
18882;DHT22;9573;50.948;11.600;2023-09-19T06:05:26;30.30;99.90
18882;DHT22;9573;50.948;11.600;2023-09-19T06:07:56;31.20;99.90
18882;DHT22;9573;50.948;11.600;2023-09-19T06:10:25;31.90;97.20
18882;DHT22;9573;50.948;11.600;2023-09-19T06:12:54;32.40;93.70
18882;DHT22;9573;50.948;11.600;2023-09-19T06:15:23;33.20;91.10
18882;DHT22;9573;50.948;11.600;2023-09-19T06:17:52;33.80;87.00
18882;DHT22;9573;50.948;11.600;2023-09-19T06:20:22;33.20;85.20
18882;DHT22;9573;50.948;11.600;2023-09-19T06:22:51;33.20;85.70
18882;DHT22;9573;50.948;11.600;2023-09-19T06:25:18;34.90;81.30
18882;DHT22;9573;50.948;11.600;2023-09-19T06:27:46;36.30;76.80
18882;DHT22;9573;50.948;11.600;2023-09-19T06:30:14;35.90;73.40
18882;DHT22;9573;50.948;11.600;2023-09-19T06:32:43;35.60;73.70
18882;DHT22;9573;50.948;11.600;2023-09-19T06:35:10;36.40;71.60
18882;DHT22;9573;50.948;11.600;2023-09-19T06:37:40;37.50;65.90
18882;DHT22;9573;50.948;11.600;2023-09-19T06:40:09;36.00;65.00
18882;DHT22;9573;50.948;11.600;2023-09-19T06:42:40;34.90;65.20
18882;DHT22;9573;50.948;11.600;2023-09-19T06:45:08;34.90;63.70
18882;DHT22;9573;50.948;11.600;2023-09-19T06:47:37;33.00;66.80
18882;DHT22;9573;50.948;11.600;2023-09-19T06:50:04;30.60;73.00
18882;DHT22;9573;50.948;11.600;2023-09-19T06:52:35;28.90;76.10
18882;DHT22;9573;50.948;11.600;2023-09-19T06:55:04;28.20;78.60
18882;DHT22;9573;50.948;11.600;2023-09-19T06:57:32;28.00;79.30
18882;DHT22;9573;50.948;11.600;2023-09-19T07:00:00;27.10;81.70
18882;DHT22;9573;50.948;11.600;2023-09-19T07:02:33;26.10;84.80
18882;DHT22;9573;50.948;11.600;2023-09-19T07:05:00;25.30;86.80
18882;DHT22;9573;50.948;11.600;2023-09-19T07:07:30;24.50;89.50
18882;DHT22;9573;50.948;11.600;2023-09-19T07:10:00;24.00;90.80
18882;DHT22;9573;50.948;11.600;2023-09-19T07:12:29;23.70;91.50
18882;DHT22;9573;50.948;11.600;2023-09-19T07:14:56;24.20;91.30
18882;DHT22;9573;50.948;11.600;2023-09-19T07:17:23;24.90;90.70
18882;DHT22;9573;50.948;11.600;2023-09-19T07:19:50;25.00;90.60
18882;DHT22;9573;50.948;11.600;2023-09-19T07:22:17;25.90;89.60
18882;DHT22;9573;50.948;11.600;2023-09-19T07:24:45;26.70;86.90
18882;DHT22;9573;50.948;11.600;2023-09-19T07:27:12;27.70;84.50
18882;DHT22;9573;50.948;11.600;2023-09-19T07:29:41;28.80;81.30
18882;DHT22;9573;50.948;11.600;2023-09-19T07:32:08;28.30;80.50
18882;DHT22;9573;50.948;11.600;2023-09-19T07:34:35;28.30;81.60
18882;DHT22;9573;50.948;11.600;2023-09-19T07:37:06;27.80;83.20
18882;DHT22;9573;50.948;11.600;2023-09-19T07:39:33;28.40;80.30
18882;DHT22;9573;50.948;11.600;2023-09-19T07:42:00;29.80;77.50
18882;DHT22;9573;50.948;11.600;2023-09-19T07:44:27;29.00;78.40
18882;DHT22;9573;50.948;11.600;2023-09-19T07:46:56;27.60;80.20
18882;DHT22;9573;50.948;11.600;2023-09-19T07:49:23;26.40;83.00
18882;DHT22;9573;50.948;11.600;2023-09-19T07:51:50;25.50;85.70
18882;DHT22;9573;50.948;11.600;2023-09-19T07:54:20;24.90;87.50
18882;DHT22;9573;50.948;11.600;2023-09-19T07:56:47;24.30;89.40
18882;DHT22;9573;50.948;11.600;2023-09-19T07:59:14;23.90;90.50
18882;DHT22;9573;50.948;11.600;2023-09-19T08:01:41;24.00;90.50
18882;DHT22;9573;50.948;11.600;2023-09-19T08:04:11;24.50;90.10
18882;DHT22;9573;50.948;11.600;2023-09-19T08:06:38;24.20;90.00
18882;DHT22;9573;50.948;11.600;2023-09-19T08:09:05;24.70;90.30
18882;DHT22;9573;50.948;11.600;2023-09-19T08:11:36;24.80;90.20
18882;DHT22;9573;50.948;11.600;2023-09-19T08:14:04;25.30;90.00
18882;DHT22;9573;50.948;11.600;2023-09-19T08:16:34;25.70;88.30
18882;DHT22;9573;50.948;11.600;2023-09-19T08:19:01;26.10;87.90
18882;DHT22;9573;50.948;11.600;2023-09-19T08:21:29;26.60;87.20
18882;DHT22;9573;50.948;11.600;2023-09-19T08:23:57;27.20;85.20
18882;DHT22;9573;50.948;11.600;2023-09-19T08:26:25;27.20;84.70
18882;DHT22;9573;50.948;11.600;2023-09-19T08:28:52;26.30;85.30
18882;DHT22;9573;50.948;11.600;2023-09-19T08:31:21;25.50;87.40
18882;DHT22;9573;50.948;11.600;2023-09-19T08:33:49;24.50;90.00
18882;DHT22;9573;50.948;11.600;2023-09-19T08:36:18;23.70;91.40
18882;DHT22;9573;50.948;11.600;2023-09-19T08:38:47;23.40;92.40
18882;DHT22;9573;50.948;11.600;2023-09-19T08:41:17;24.40;91.60
18882;DHT22;9573;50.948;11.600;2023-09-19T08:43:45;26.30;88.40
18882;DHT22;9573;50.948;11.600;2023-09-19T08:46:15;26.60;86.40
18882;DHT22;9573;50.948;11.600;2023-09-19T08:48:46;26.00;87.70
18882;DHT22;9573;50.948;11.600;2023-09-19T08:51:21;25.40;89.70
18882;DHT22;9573;50.948;11.600;2023-09-19T08:54:03;25.60;90.00
18882;DHT22;9573;50.948;11.600;2023-09-19T08:56:33;25.80;88.60
18882;DHT22;9573;50.948;11.600;2023-09-19T08:59:03;25.80;88.20
18882;DHT22;9573;50.948;11.600;2023-09-19T09:01:33;25.40;86.40
18882;DHT22;9573;50.948;11.600;2023-09-19T09:04:01;24.70;88.90
18882;DHT22;9573;50.948;11.600;2023-09-19T09:06:31;24.30;89.70
18882;DHT22;9573;50.948;11.600;2023-09-19T09:09:00;23.90;90.30
18882;DHT22;9573;50.948;11.600;2023-09-19T09:11:29;23.70;90.70
18882;DHT22;9573;50.948;11.600;2023-09-19T09:13:56;23.80;90.70
18882;DHT22;9573;50.948;11.600;2023-09-19T09:16:24;24.10;90.40
18882;DHT22;9573;50.948;11.600;2023-09-19T09:18:51;24.00;89.50
18882;DHT22;9573;50.948;11.600;2023-09-19T09:21:20;24.00;90.30
18882;DHT22;9573;50.948;11.600;2023-09-19T09:23:47;24.70;87.70
18882;DHT22;9573;50.948;11.600;2023-09-19T09:26:16;24.60;85.00
18882;DHT22;9573;50.948;11.600;2023-09-19T09:28:46;24.90;86.00
18882;DHT22;9573;50.948;11.600;2023-09-19T09:31:25;24.60;85.10
18882;DHT22;9573;50.948;11.600;2023-09-19T09:33:55;24.30;86.60
18882;DHT22;9573;50.948;11.600;2023-09-19T09:36:34;24.50;87.50
18882;DHT22;9573;50.948;11.600;2023-09-19T09:39:02;25.00;87.10
18882;DHT22;9573;50.948;11.600;2023-09-19T09:41:42;25.90;84.70
18882;DHT22;9573;50.948;11.600;2023-09-19T09:44:15;26.90;79.10
18882;DHT22;9573;50.948;11.600;2023-09-19T09:46:44;27.50;76.30
18882;DHT22;9573;50.948;11.600;2023-09-19T09:49:47;27.90;74.00
18882;DHT22;9573;50.948;11.600;2023-09-19T09:54:59;27.80;67.90
18882;DHT22;9573;50.948;11.600;2023-09-19T09:57:32;27.50;68.90
18882;DHT22;9573;50.948;11.600;2023-09-19T10:00:00;27.00;68.60
18882;DHT22;9573;50.948;11.600;2023-09-19T10:02:42;26.60;69.40
18882;DHT22;9573;50.948;11.600;2023-09-19T10:05:13;26.30;70.30
18882;DHT22;9573;50.948;11.600;2023-09-19T10:07:47;26.20;69.40
18882;DHT22;9573;50.948;11.600;2023-09-19T10:10:30;26.50;69.60
18882;DHT22;9573;50.948;11.600;2023-09-19T10:13:12;27.20;68.60
18882;DHT22;9573;50.948;11.600;2023-09-19T10:15:42;28.30;66.10
18882;DHT22;9573;50.948;11.600;2023-09-19T10:18:14;28.50;66.00
18882;DHT22;9573;50.948;11.600;2023-09-19T10:20:44;28.50;66.10
18882;DHT22;9573;50.948;11.600;2023-09-19T10:23:13;28.50;66.00
18882;DHT22;9573;50.948;11.600;2023-09-19T10:25:42;28.80;66.90
18882;DHT22;9573;50.948;11.600;2023-09-19T10:28:14;29.30;65.60
18882;DHT22;9573;50.948;11.600;2023-09-19T10:30:43;29.50;64.30
18882;DHT22;9573;50.948;11.600;2023-09-19T10:33:14;29.00;64.80
18882;DHT22;9573;50.948;11.600;2023-09-19T10:35:43;28.80;66.70
18882;DHT22;9573;50.948;11.600;2023-09-19T10:38:13;29.00;64.90
18882;DHT22;9573;50.948;11.600;2023-09-19T10:40:42;28.80;64.80
18882;DHT22;9573;50.948;11.600;2023-09-19T10:43:15;29.00;64.40
18882;DHT22;9573;50.948;11.600;2023-09-19T10:45:44;29.70;64.90
18882;DHT22;9573;50.948;11.600;2023-09-19T10:48:15;30.10;64.60
18882;DHT22;9573;50.948;11.600;2023-09-19T10:50:48;30.50;63.30
18882;DHT22;9573;50.948;11.600;2023-09-19T10:53:17;30.70;62.50
18882;DHT22;9573;50.948;11.600;2023-09-19T10:55:50;30.10;63.40
18882;DHT22;9573;50.948;11.600;2023-09-19T10:58:31;30.20;63.50
18882;DHT22;9573;50.948;11.600;2023-09-19T11:01:04;30.50;63.60
18882;DHT22;9573;50.948;11.600;2023-09-19T11:03:41;30.90;63.00
18882;DHT22;9573;50.948;11.600;2023-09-19T11:06:14;30.80;62.90
18882;DHT22;9573;50.948;11.600;2023-09-19T11:09:00;31.00;62.40
18882;DHT22;9573;50.948;11.600;2023-09-19T11:11:48;30.80;61.90
18882;DHT22;9573;50.948;11.600;2023-09-19T11:14:40;31.00;62.60
18882;DHT22;9573;50.948;11.600;2023-09-19T11:17:40;31.50;62.00
18882;DHT22;9573;50.948;11.600;2023-09-19T11:20:21;32.20;60.30
18882;DHT22;9573;50.948;11.600;2023-09-19T11:23:20;32.20;59.60
18882;DHT22;9573;50.948;11.600;2023-09-19T11:25:49;32.10;59.60
18882;DHT22;9573;50.948;11.600;2023-09-19T11:28:34;32.20;59.10
18882;DHT22;9573;50.948;11.600;2023-09-19T11:34:43;31.10;58.60
18882;DHT22;9573;50.948;11.600;2023-09-19T11:40:36;31.60;57.10
18882;DHT22;9573;50.948;11.600;2023-09-19T11:43:29;31.00;56.50
18882;DHT22;9573;50.948;11.600;2023-09-19T11:46:06;30.70;57.10
18882;DHT22;9573;50.948;11.600;2023-09-19T11:48:35;30.60;56.60
18882;DHT22;9573;50.948;11.600;2023-09-19T11:51:24;30.60;57.10
18882;DHT22;9573;50.948;11.600;2023-09-19T11:53:54;30.70;56.60
18882;DHT22;9573;50.948;11.600;2023-09-19T11:56:23;30.50;57.50
18882;DHT22;9573;50.948;11.600;2023-09-19T11:58:52;30.40;57.40
18882;DHT22;9573;50.948;11.600;2023-09-19T12:01:25;30.10;57.00
18882;DHT22;9573;50.948;11.600;2023-09-19T12:04:00;29.70;58.10
18882;DHT22;9573;50.948;11.600;2023-09-19T12:06:30;29.40;57.40
18882;DHT22;9573;50.948;11.600;2023-09-19T12:08:58;29.30;58.00
18882;DHT22;9573;50.948;11.600;2023-09-19T12:11:29;29.30;58.00
18882;DHT22;9573;50.948;11.600;2023-09-19T12:13:59;29.20;58.30
18882;DHT22;9573;50.948;11.600;2023-09-19T12:16:27;29.20;58.40
18882;DHT22;9573;50.948;11.600;2023-09-19T12:18:57;29.40;58.10
18882;DHT22;9573;50.948;11.600;2023-09-19T12:21:26;29.40;59.30
18882;DHT22;9573;50.948;11.600;2023-09-19T12:24:13;29.90;59.30
18882;DHT22;9573;50.948;11.600;2023-09-19T12:26:45;29.90;58.40
18882;DHT22;9573;50.948;11.600;2023-09-19T12:29:19;29.70;59.10
18882;DHT22;9573;50.948;11.600;2023-09-19T12:31:51;29.70;58.60
18882;DHT22;9573;50.948;11.600;2023-09-19T12:34:23;29.50;59.10
18882;DHT22;9573;50.948;11.600;2023-09-19T12:37:08;29.40;59.90
18882;DHT22;9573;50.948;11.600;2023-09-19T12:39:42;29.50;59.70
18882;DHT22;9573;50.948;11.600;2023-09-19T12:42:15;29.40;60.40
18882;DHT22;9573;50.948;11.600;2023-09-19T12:44:44;29.20;61.40
18882;DHT22;9573;50.948;11.600;2023-09-19T12:47:13;29.30;61.30
18882;DHT22;9573;50.948;11.600;2023-09-19T12:50:11;29.20;61.30
18882;DHT22;9573;50.948;11.600;2023-09-19T12:52:44;29.00;62.10
18882;DHT22;9573;50.948;11.600;2023-09-19T12:55:24;28.20;63.10
18882;DHT22;9573;50.948;11.600;2023-09-19T12:58:01;27.50;65.10
18882;DHT22;9573;50.948;11.600;2023-09-19T13:00:37;26.90;66.40
18882;DHT22;9573;50.948;11.600;2023-09-19T13:03:16;27.20;65.70
18882;DHT22;9573;50.948;11.600;2023-09-19T13:05:56;27.20;66.20
18882;DHT22;9573;50.948;11.600;2023-09-19T13:08:27;26.70;67.60
18882;DHT22;9573;50.948;11.600;2023-09-19T13:11:09;26.90;68.50
18882;DHT22;9573;50.948;11.600;2023-09-19T13:13:40;27.20;67.40
18882;DHT22;9573;50.948;11.600;2023-09-19T13:16:09;27.10;66.80
18882;DHT22;9573;50.948;11.600;2023-09-19T13:18:44;26.70;68.10
18882;DHT22;9573;50.948;11.600;2023-09-19T13:21:14;26.40;70.10
18882;DHT22;9573;50.948;11.600;2023-09-19T13:23:51;26.20;69.20
18882;DHT22;9573;50.948;11.600;2023-09-19T13:26:20;26.50;69.20
18882;DHT22;9573;50.948;11.600;2023-09-19T13:28:48;26.80;67.10
18882;DHT22;9573;50.948;11.600;2023-09-19T13:31:16;27.10;66.70
18882;DHT22;9573;50.948;11.600;2023-09-19T13:33:44;26.70;66.80
18882;DHT22;9573;50.948;11.600;2023-09-19T13:36:13;26.50;67.20
18882;DHT22;9573;50.948;11.600;2023-09-19T13:38:40;26.20;67.90
18882;DHT22;9573;50.948;11.600;2023-09-19T13:41:09;25.70;67.90
18882;DHT22;9573;50.948;11.600;2023-09-19T13:43:37;25.30;69.20
18882;DHT22;9573;50.948;11.600;2023-09-19T13:46:05;25.00;70.60
18882;DHT22;9573;50.948;11.600;2023-09-19T13:48:37;24.70;70.40
18882;DHT22;9573;50.948;11.600;2023-09-19T13:51:04;24.60;69.90
18882;DHT22;9573;50.948;11.600;2023-09-19T13:53:33;24.60;70.30
18882;DHT22;9573;50.948;11.600;2023-09-19T13:56:00;24.60;70.40
18882;DHT22;9573;50.948;11.600;2023-09-19T13:58:27;24.50;70.50
18882;DHT22;9573;50.948;11.600;2023-09-19T14:00:56;24.30;71.00
18882;DHT22;9573;50.948;11.600;2023-09-19T14:03:25;24.30;71.50
18882;DHT22;9573;50.948;11.600;2023-09-19T14:05:54;24.10;70.80
18882;DHT22;9573;50.948;11.600;2023-09-19T14:08:21;23.90;70.90
18882;DHT22;9573;50.948;11.600;2023-09-19T14:10:50;23.80;70.20
18882;DHT22;9573;50.948;11.600;2023-09-19T14:13:17;23.70;70.80
18882;DHT22;9573;50.948;11.600;2023-09-19T14:15:46;23.50;71.60
18882;DHT22;9573;50.948;11.600;2023-09-19T14:18:16;23.40;71.80
18882;DHT22;9573;50.948;11.600;2023-09-19T14:20:46;23.40;72.70
18882;DHT22;9573;50.948;11.600;2023-09-19T14:23:13;23.50;73.20
18882;DHT22;9573;50.948;11.600;2023-09-19T14:25:40;23.50;72.80
18882;DHT22;9573;50.948;11.600;2023-09-19T14:28:09;23.50;73.50
18882;DHT22;9573;50.948;11.600;2023-09-19T14:30:36;23.60;73.60
18882;DHT22;9573;50.948;11.600;2023-09-19T14:33:04;23.80;72.90
18882;DHT22;9573;50.948;11.600;2023-09-19T14:35:31;23.80;72.20
18882;DHT22;9573;50.948;11.600;2023-09-19T14:37:59;23.60;72.50
18882;DHT22;9573;50.948;11.600;2023-09-19T14:40:26;23.50;73.50
18882;DHT22;9573;50.948;11.600;2023-09-19T14:42:54;23.30;74.10
18882;DHT22;9573;50.948;11.600;2023-09-19T14:45:22;23.20;74.70
18882;DHT22;9573;50.948;11.600;2023-09-19T14:47:51;23.00;73.60
18882;DHT22;9573;50.948;11.600;2023-09-19T14:50:20;22.90;74.50
18882;DHT22;9573;50.948;11.600;2023-09-19T14:52:48;22.80;74.20
18882;DHT22;9573;50.948;11.600;2023-09-19T14:55:17;22.80;74.50
18882;DHT22;9573;50.948;11.600;2023-09-19T14:57:49;22.80;74.50
18882;DHT22;9573;50.948;11.600;2023-09-19T15:00:17;22.60;74.40
18882;DHT22;9573;50.948;11.600;2023-09-19T15:02:48;22.60;75.60
18882;DHT22;9573;50.948;11.600;2023-09-19T15:05:15;22.50;75.50
18882;DHT22;9573;50.948;11.600;2023-09-19T15:07:43;22.50;75.60
18882;DHT22;9573;50.948;11.600;2023-09-19T15:10:10;22.30;75.90
18882;DHT22;9573;50.948;11.600;2023-09-19T15:12:39;22.20;75.90
18882;DHT22;9573;50.948;11.600;2023-09-19T15:15:07;22.00;75.70
18882;DHT22;9573;50.948;11.600;2023-09-19T15:17:35;22.00;75.50
18882;DHT22;9573;50.948;11.600;2023-09-19T15:20:05;21.90;76.10
18882;DHT22;9573;50.948;11.600;2023-09-19T15:22:33;21.90;76.60
18882;DHT22;9573;50.948;11.600;2023-09-19T15:25:01;21.80;76.50
18882;DHT22;9573;50.948;11.600;2023-09-19T15:27:29;21.80;76.90
18882;DHT22;9573;50.948;11.600;2023-09-19T15:29:58;21.80;77.40
18882;DHT22;9573;50.948;11.600;2023-09-19T15:32:26;21.70;77.60
18882;DHT22;9573;50.948;11.600;2023-09-19T15:34:53;21.70;77.30
18882;DHT22;9573;50.948;11.600;2023-09-19T15:37:22;21.70;77.40
18882;DHT22;9573;50.948;11.600;2023-09-19T15:39:49;21.60;77.20
18882;DHT22;9573;50.948;11.600;2023-09-19T15:42:18;21.50;77.30
18882;DHT22;9573;50.948;11.600;2023-09-19T15:44:45;21.40;76.30
18882;DHT22;9573;50.948;11.600;2023-09-19T15:47:15;21.30;76.50
18882;DHT22;9573;50.948;11.600;2023-09-19T15:49:42;21.20;76.90
18882;DHT22;9573;50.948;11.600;2023-09-19T15:52:09;21.10;77.00
18882;DHT22;9573;50.948;11.600;2023-09-19T15:54:38;21.00;77.10
18882;DHT22;9573;50.948;11.600;2023-09-19T15:57:10;21.00;77.60
18882;DHT22;9573;50.948;11.600;2023-09-19T15:59:38;20.90;78.10